createdAt,value
2023-05-08T00:01:58.448Z,97167.59
2023-05-08T00:04:26.319Z,97160.81
2023-05-08T00:06:54.052Z,97165.53
2023-05-08T00:09:21.606Z,97163.22
2023-05-08T00:11:49.427Z,97170.25
2023-05-08T00:14:18.337Z,97166.81
2023-05-08T00:16:45.961Z,97177.03
2023-05-08T00:19:13.528Z,97158.84
2023-05-08T00:21:41.052Z,97168.69
2023-05-08T00:24:08.829Z,97167.91
2023-05-08T00:26:36.404Z,97167.75
2023-05-08T00:29:06.038Z,97161.81
2023-05-08T00:31:36.240Z,97163.34
2023-05-08T00:34:03.809Z,97171.50
2023-05-08T00:36:32.203Z,97161.63
2023-05-08T00:38:59.795Z,97164.78
2023-05-08T00:41:27.323Z,97168.38
2023-05-08T00:43:54.904Z,97160.06
2023-05-08T00:46:22.757Z,97170.41
2023-05-08T00:48:51.797Z,97164.00
2023-05-08T00:51:19.445Z,97161.94
2023-05-08T00:53:47.041Z,97160.88
2023-05-08T00:56:16.726Z,97159.94
2023-05-08T00:58:45.572Z,97159.28
2023-05-08T01:01:13.218Z,97159.75
2023-05-08T01:03:41.429Z,97158.31
2023-05-08T01:06:10.573Z,97163.53
2023-05-08T01:08:38.206Z,97158.66
2023-05-08T01:11:13.770Z,97157.25
2023-05-08T01:13:52.455Z,97161.00
2023-05-08T01:16:30.220Z,97158.69
2023-05-08T01:19:04.867Z,97161.50
2023-05-08T01:21:43.045Z,97163.38
2023-05-08T01:24:32.153Z,97167.59
2023-05-08T01:27:23.518Z,97156.78
2023-05-08T01:30:17.501Z,97163.22
2023-05-08T01:32:51.903Z,97163.09
2023-05-08T01:35:28.301Z,97162.59
2023-05-08T01:38:01.048Z,97161.94
2023-05-08T01:40:34.630Z,97159.28
2023-05-08T01:43:15.213Z,97157.88
2023-05-08T01:45:46.578Z,97166.84
2023-05-08T01:48:20.545Z,97152.09
2023-05-08T01:50:51.620Z,97154.91
2023-05-08T01:53:24.292Z,97156.16
2023-05-08T01:55:55.486Z,97158.06
2023-05-08T01:58:25.300Z,97161.34
2023-05-08T02:00:54.246Z,97164.63
2023-05-08T02:03:25.272Z,97161.50
2023-05-08T02:05:55.898Z,97159.59
2023-05-08T02:08:25.384Z,97164.94
2023-05-08T02:10:53.664Z,97170.63
2023-05-08T02:13:23.386Z,97177.66
2023-05-08T02:15:54.249Z,97170.13
2023-05-08T02:18:24.781Z,97167.28
2023-05-08T02:20:54.809Z,97171.19
2023-05-08T02:23:24.136Z,97170.28
2023-05-08T02:25:52.755Z,97169.34
2023-05-08T02:28:21.243Z,97178.75
2023-05-08T02:30:50.766Z,97174.53
2023-05-08T02:33:20.604Z,97168.41
2023-05-08T02:35:51.555Z,97175.94
2023-05-08T02:38:21.600Z,97172.78
2023-05-08T02:40:52.096Z,97171.69
2023-05-08T02:43:19.912Z,97172.78
2023-05-08T02:45:53.394Z,97174.69
2023-05-08T02:48:26.010Z,97175.63
2023-05-08T02:51:01.337Z,97174.81
2023-05-08T02:53:35.401Z,97169.47
2023-05-08T02:56:10.386Z,97179.22
2023-05-08T02:58:43.265Z,97169.03
2023-05-08T03:01:19.299Z,97175.31
2023-05-08T03:03:54.147Z,97166.53
2023-05-08T03:06:26.884Z,97175.31
2023-05-08T03:09:00.753Z,97174.34
2023-05-08T03:11:37.811Z,97175.94
2023-05-08T03:14:10.799Z,97174.34
2023-05-08T03:16:40.637Z,97170.41
2023-05-08T03:19:11.458Z,97170.75
2023-05-08T03:21:44.012Z,97165.88
2023-05-08T03:24:13.160Z,97169.00
2023-05-08T03:26:40.917Z,97170.72
2023-05-08T03:29:08.904Z,97168.88
2023-05-08T03:31:38.155Z,97169.00
2023-05-08T03:34:06.385Z,97168.53
2023-05-08T03:36:34.129Z,97174.19
2023-05-08T03:39:04.110Z,97169.94
2023-05-08T03:41:32.009Z,97177.19
2023-05-08T03:43:59.963Z,97174.31
2023-05-08T03:46:27.828Z,97173.41
2023-05-08T03:48:56.236Z,97173.25
2023-05-08T03:51:23.964Z,97182.50
2023-05-08T03:53:51.587Z,97185.94
2023-05-08T03:56:20.853Z,97177.94
2023-05-08T03:58:51.757Z,97182.50
2023-05-08T04:01:26.474Z,97184.22
2023-05-08T04:04:02.698Z,97180.28
2023-05-08T04:06:45.896Z,97183.44
2023-05-08T04:09:20.982Z,97182.31
2023-05-08T04:11:55.484Z,97183.59
2023-05-08T04:14:26.953Z,97191.13
2023-05-08T04:17:01.264Z,97197.09
2023-05-08T04:19:34.289Z,97200.22
2023-05-08T04:22:08.246Z,97203.66
2023-05-08T04:24:41.854Z,97200.06
2023-05-08T04:27:11.529Z,97200.88
2023-05-08T04:29:39.154Z,97212.00
2023-05-08T04:32:08.477Z,97197.09
2023-05-08T04:34:36.565Z,97200.53
2023-05-08T04:37:04.435Z,97195.34
2023-05-08T04:39:31.912Z,97198.31
2023-05-08T04:42:03.273Z,97196.94
2023-05-08T04:44:32.186Z,97196.59
2023-05-08T04:46:59.681Z,97195.69
2023-05-08T04:49:27.216Z,97196.16
2023-05-08T04:51:54.712Z,97195.53
2023-05-08T04:54:22.193Z,97196.00
2023-05-08T04:56:49.674Z,97196.78
2023-05-08T04:59:17.210Z,97201.16
2023-05-08T05:01:46.516Z,97199.13
2023-05-08T05:04:14.137Z,97198.66
2023-05-08T05:06:41.998Z,97208.69
2023-05-08T05:09:10.208Z,97202.28
2023-05-08T05:11:37.732Z,97206.97
2023-05-08T05:14:06.096Z,97201.97
2023-05-08T05:16:33.953Z,97208.22
2023-05-08T05:19:03.435Z,97208.84
2023-05-08T05:21:31.148Z,97213.06
2023-05-08T05:23:58.670Z,97218.59
2023-05-08T05:26:26.182Z,97220.28
2023-05-08T05:28:53.694Z,97212.19
2023-05-08T05:31:21.220Z,97225.63
2023-05-08T05:33:49.096Z,97221.56
2023-05-08T05:36:17.977Z,97222.03
2023-05-08T05:38:45.454Z,97221.88
2023-05-08T05:41:12.965Z,97225.00
2023-05-08T05:43:40.498Z,97228.31
2023-05-08T05:46:09.300Z,97231.44
2023-05-08T05:48:37.134Z,97225.28
2023-05-08T05:51:05.125Z,97225.59
2023-05-08T05:53:34.176Z,97230.13
2023-05-08T05:56:01.756Z,97230.94
2023-05-08T05:58:29.360Z,97234.69
2023-05-08T06:00:58.913Z,97231.44
2023-05-08T06:03:26.555Z,97224.03
2023-05-08T06:05:55.785Z,97235.78
2023-05-08T06:08:23.973Z,97227.94
2023-05-08T06:10:52.844Z,97230.28
2023-05-08T06:13:20.866Z,97236.09
2023-05-08T06:15:50.400Z,97230.97
2023-05-08T06:18:18.020Z,97235.25
2023-05-08T06:20:45.496Z,97233.44
2023-05-08T06:23:13.260Z,97234.97
2023-05-08T06:25:41.201Z,97230.34
2023-05-08T06:28:10.046Z,97237.28
2023-05-08T06:30:37.650Z,97229.13
2023-05-08T06:33:05.412Z,97230.47
2023-05-08T06:35:32.938Z,97232.69
2023-05-08T06:38:01.318Z,97237.94
2023-05-08T06:40:28.809Z,97240.81
2023-05-08T06:42:56.302Z,97236.22
2023-05-08T06:45:25.124Z,97238.94
2023-05-08T06:47:52.713Z,97240.75
2023-05-08T06:50:20.420Z,97241.31
2023-05-08T06:52:47.929Z,97237.06
2023-05-08T06:55:15.647Z,97243.06
2023-05-08T06:57:43.142Z,97253.56
2023-05-08T07:00:11.902Z,97235.69
2023-05-08T07:02:40.948Z,97244.41
2023-05-08T07:05:09.581Z,97242.66
2023-05-08T07:07:37.179Z,97247.31
2023-05-08T07:10:05.965Z,97242.16
2023-05-08T07:12:35.279Z,97245.75
2023-05-08T07:15:13.744Z,97250.13
2023-05-08T07:17:47.037Z,97255.94
2023-05-08T07:20:14.585Z,97257.97
2023-05-08T07:22:42.083Z,97255.22
2023-05-08T07:25:11.100Z,97259.72
2023-05-08T07:27:38.782Z,97261.78
2023-05-08T07:30:07.375Z,97257.88
2023-05-08T07:32:34.986Z,97267.00
2023-05-08T07:35:06.466Z,97264.81
2023-05-08T07:37:35.204Z,97259.00
2023-05-08T07:40:02.710Z,97263.88
2023-05-08T07:42:30.222Z,97258.53
2023-05-08T07:44:57.705Z,97260.09
2023-05-08T07:47:25.290Z,97267.66
2023-05-08T07:49:52.831Z,97263.50
2023-05-08T07:52:21.971Z,97253.78
2023-05-08T07:54:49.505Z,97256.16
2023-05-08T07:57:17.015Z,97266.09
2023-05-08T07:59:44.563Z,97266.97
2023-05-08T08:02:12.048Z,97261.81
2023-05-08T08:04:39.734Z,97253.47
2023-05-08T08:07:07.365Z,97262.16
2023-05-08T08:09:36.234Z,97261.50
2023-05-08T08:12:03.793Z,97261.81
2023-05-08T08:14:31.261Z,97259.75
2023-05-08T08:16:58.892Z,97257.31
2023-05-08T08:19:26.448Z,97252.56
2023-05-08T08:21:54.001Z,97254.44
2023-05-08T08:24:21.523Z,97253.78
2023-05-08T08:26:50.440Z,97256.84
2023-05-08T08:29:17.976Z,97249.53
2023-05-08T08:31:45.702Z,97255.59
2023-05-08T08:34:13.568Z,97256.00
2023-05-08T08:36:41.099Z,97249.75
2023-05-08T08:39:11.481Z,97243.16
2023-05-08T08:41:40.394Z,97245.84
2023-05-08T08:44:09.279Z,97246.41
2023-05-08T08:46:40.842Z,97244.88
2023-05-08T08:49:09.686Z,97245.13
2023-05-08T08:51:44.182Z,97252.34
2023-05-08T08:54:14.521Z,97245.47
2023-05-08T08:56:43.768Z,97246.38
2023-05-08T08:59:14.195Z,97250.88
2023-05-08T09:01:42.429Z,97244.66
2023-05-08T09:04:10.078Z,97249.31
2023-05-08T09:06:38.908Z,97253.00
2023-05-08T09:09:06.482Z,97238.63
2023-05-08T09:11:34.310Z,97237.19
2023-05-08T09:14:01.932Z,97243.88
2023-05-08T09:16:30.893Z,97243.53
2023-05-08T09:18:58.394Z,97240.31
2023-05-08T09:21:26.807Z,97242.56
2023-05-08T09:23:59.063Z,97238.06
2023-05-08T09:26:32.412Z,97241.88
2023-05-08T09:29:18.777Z,97250.13
2023-05-08T09:31:49.187Z,97249.06
2023-05-08T09:34:26.958Z,97246.00
2023-05-08T09:36:54.935Z,97241.25
2023-05-08T09:39:25.046Z,97243.09
2023-05-08T09:41:59.570Z,97248.75
2023-05-08T09:44:27.446Z,97250.81
2023-05-08T09:47:11.365Z,97253.91
2023-05-08T09:49:40.165Z,97248.97
2023-05-08T09:52:08.372Z,97256.63
2023-05-08T09:54:35.986Z,97255.78
2023-05-08T09:57:13.010Z,97251.66
2023-05-08T09:59:40.581Z,97241.66
2023-05-08T10:02:16.068Z,97249.97
2023-05-08T10:04:43.957Z,97250.31
2023-05-08T10:07:11.483Z,97250.00
2023-05-08T10:09:50.291Z,97248.53
2023-05-08T10:12:18.532Z,97251.53
2023-05-08T10:14:46.941Z,97247.97
2023-05-08T10:17:22.375Z,97250.56
2023-05-08T10:19:55.103Z,97246.13
2023-05-08T10:22:24.661Z,97244.97
2023-05-08T10:24:56.747Z,97243.16
2023-05-08T10:27:31.862Z,97248.00
2023-05-08T10:30:04.032Z,97234.72
2023-05-08T10:32:40.465Z,97235.75
2023-05-08T10:35:11.650Z,97231.50
2023-05-08T10:37:42.095Z,97231.72
2023-05-08T10:40:11.842Z,97226.19
2023-05-08T10:42:40.549Z,97225.41
2023-05-08T10:45:09.417Z,97220.94
2023-05-08T10:47:55.213Z,97216.88
2023-05-08T10:50:37.751Z,97214.44
2023-05-08T10:53:08.785Z,97211.56
2023-05-08T10:55:38.415Z,97217.19
2023-05-08T10:58:10.329Z,97215.47
2023-05-08T11:01:12.808Z,97211.19
2023-05-08T11:03:44.171Z,97210.34
2023-05-08T11:06:12.234Z,97206.88
2023-05-08T11:08:47.728Z,97209.66
2023-05-08T11:11:24.883Z,97203.09
2023-05-08T11:13:56.767Z,97197.38
2023-05-08T11:17:03.417Z,97198.44
2023-05-08T11:19:32.823Z,97193.97
2023-05-08T11:22:14.838Z,97192.88
2023-05-08T11:24:48.620Z,97195.75
2023-05-08T11:27:16.335Z,97190.66
2023-05-08T11:29:44.894Z,97193.25
2023-05-08T11:32:12.510Z,97187.38
2023-05-08T11:34:48.668Z,97189.34
2023-05-08T11:37:19.145Z,97187.50
2023-05-08T11:39:47.362Z,97183.59
2023-05-08T11:42:37.038Z,97183.41
2023-05-08T11:45:07.582Z,97180.97
2023-05-08T11:47:39.721Z,97190.59
2023-05-08T11:50:10.778Z,97182.34
2023-05-08T11:52:40.267Z,97177.47
2023-05-08T11:55:09.837Z,97186.00
2023-05-08T11:57:37.699Z,97185.34
2023-05-08T12:00:06.925Z,97186.56
2023-05-08T12:02:39.372Z,97179.66
2023-05-08T12:05:10.695Z,97172.75
2023-05-08T12:07:45.056Z,97172.94
2023-05-08T12:10:12.941Z,97167.56
2023-05-08T12:12:43.021Z,97173.91
2023-05-08T12:15:12.560Z,97178.88
2023-05-08T12:17:40.771Z,97176.38
2023-05-08T12:20:15.352Z,97169.75
2023-05-08T12:22:44.325Z,97166.13
2023-05-08T12:25:12.849Z,97169.69
2023-05-08T12:27:40.711Z,97170.09
2023-05-08T12:30:10.093Z,97165.31
2023-05-08T12:32:38.888Z,97164.22
2023-05-08T12:35:08.452Z,97164.91
2023-05-08T12:37:37.667Z,97160.50
2023-05-08T12:40:05.906Z,97156.97
2023-05-08T12:42:42.827Z,97158.66
2023-05-08T12:45:17.351Z,97155.63
2023-05-08T12:47:47.152Z,97153.63
2023-05-08T12:50:16.700Z,97161.09
2023-05-08T12:52:45.658Z,97155.59
2023-05-08T12:55:26.888Z,97162.44
2023-05-08T12:58:01.316Z,97168.56
2023-05-08T13:00:36.963Z,97166.88
2023-05-08T13:03:05.135Z,97166.94
2023-05-08T13:05:35.146Z,97164.66
2023-05-08T13:08:05.538Z,97168.53
2023-05-08T13:10:51.900Z,97168.88
2023-05-08T13:13:20.927Z,97176.50
2023-05-08T13:15:50.742Z,97185.78
2023-05-08T13:18:19.287Z,97178.06
2023-05-08T13:20:47.071Z,97173.63
2023-05-08T13:23:15.996Z,97182.97
2023-05-08T13:25:43.782Z,97189.38
2023-05-08T13:28:11.824Z,97186.88
2023-05-08T13:30:39.776Z,97176.94
2023-05-08T13:33:07.688Z,97183.06
2023-05-08T13:35:36.142Z,97176.41
2023-05-08T13:38:03.908Z,97176.50
2023-05-08T13:40:32.925Z,97179.34
2023-05-08T13:43:00.441Z,97177.44
2023-05-08T13:45:28.062Z,97185.56
2023-05-08T13:47:55.738Z,97181.59
2023-05-08T13:50:23.284Z,97176.66
2023-05-08T13:52:53.985Z,97187.41
2023-05-08T13:55:23.134Z,97191.16
2023-05-08T13:57:52.429Z,97184.59
2023-05-08T14:00:20.701Z,97187.22
2023-05-08T14:02:50.719Z,97184.44
2023-05-08T14:05:19.890Z,97187.16
2023-05-08T14:07:47.416Z,97183.88
2023-05-08T14:10:16.918Z,97179.84
2023-05-08T14:12:44.474Z,97177.97
2023-05-08T14:15:13.651Z,97168.34
2023-05-08T14:17:42.288Z,97160.34
2023-05-08T14:20:12.029Z,97166.69
2023-05-08T14:22:39.966Z,97170.28
2023-05-08T14:25:09.140Z,97173.41
2023-05-08T14:27:36.654Z,97174.91
2023-05-08T14:30:04.798Z,97178.06
2023-05-08T14:32:33.804Z,97180.50
2023-05-08T14:35:01.395Z,97177.09
2023-05-08T14:37:28.919Z,97176.50
2023-05-08T14:39:57.634Z,97182.22
2023-05-08T14:42:25.183Z,97183.50
2023-05-08T14:44:53.241Z,97184.00
2023-05-08T14:47:20.862Z,97183.69
2023-05-08T14:49:49.827Z,97192.16
2023-05-08T14:52:17.355Z,97186.91
2023-05-08T14:54:45.190Z,97191.91
2023-05-08T14:57:12.991Z,97186.19
2023-05-08T15:02:28.018Z,97184.97
2023-05-08T15:04:56.884Z,97195.38
2023-05-08T15:07:24.422Z,97191.72
2023-05-08T15:09:53.050Z,97198.13
2023-05-08T15:12:20.646Z,97192.56
2023-05-08T15:14:48.167Z,97191.63
2023-05-08T15:17:15.678Z,97194.72
2023-05-08T15:19:43.333Z,97189.78
2023-05-08T15:22:12.186Z,97199.00
2023-05-08T15:24:39.700Z,97190.84
2023-05-08T15:27:09.793Z,97195.66
2023-05-08T15:29:39.549Z,97200.38
2023-05-08T15:32:07.368Z,97185.00
2023-05-08T15:34:34.994Z,97186.03
2023-05-08T15:37:02.540Z,97191.59
2023-05-08T15:39:31.401Z,97183.84
2023-05-08T15:41:58.939Z,97189.72
2023-05-08T15:44:28.743Z,97188.84
2023-05-08T15:47:01.828Z,97188.25
2023-05-08T15:49:29.380Z,97196.03
2023-05-08T15:51:57.071Z,97197.94
2023-05-08T15:54:24.577Z,97187.44
2023-05-08T15:56:53.436Z,97180.22
2023-05-08T15:59:20.997Z,97180.47
2023-05-08T16:01:49.794Z,97177.63
2023-05-08T16:04:18.274Z,97175.75
2023-05-08T16:06:45.778Z,97178.16
2023-05-08T16:09:13.256Z,97179.78
2023-05-08T16:11:40.798Z,97175.59
2023-05-08T16:14:09.741Z,97169.16
2023-05-08T16:16:39.009Z,97183.16
2023-05-08T16:19:06.702Z,97178.66
2023-05-08T16:21:34.230Z,97178.75
2023-05-08T16:24:01.829Z,97185.53
2023-05-08T16:26:29.459Z,97189.72
2023-05-08T16:28:57.075Z,97189.38
2023-05-08T16:31:26.084Z,97190.34
2023-05-08T16:33:53.609Z,97188.00
2023-05-08T16:36:21.081Z,97186.00
2023-05-08T16:38:48.601Z,97187.28
2023-05-08T16:41:16.214Z,97185.63
2023-05-08T16:43:43.693Z,97191.38
2023-05-08T16:46:11.253Z,97190.34
2023-05-08T16:48:40.265Z,97195.13
2023-05-08T16:51:07.962Z,97197.00
2023-05-08T16:53:35.481Z,97194.72
2023-05-08T16:56:03.021Z,97197.34
2023-05-08T16:58:30.559Z,97195.84
2023-05-08T17:00:58.112Z,97203.88
2023-05-08T17:03:25.900Z,97206.47
2023-05-08T17:05:54.855Z,97203.72
2023-05-08T17:08:22.395Z,97208.00
2023-05-08T17:10:49.916Z,97205.66
2023-05-08T17:13:17.514Z,97215.63
2023-05-08T17:15:45.025Z,97215.88
2023-05-08T17:18:12.565Z,97215.72
2023-05-08T17:20:42.274Z,97221.81
2023-05-08T17:23:11.231Z,97224.31
2023-05-08T17:25:38.769Z,97215.50
2023-05-08T17:28:06.316Z,97223.44
2023-05-08T17:30:33.887Z,97227.38
2023-05-08T17:33:01.501Z,97226.16
2023-05-08T17:35:29.189Z,97228.47
2023-05-08T17:37:56.690Z,97230.53
2023-05-08T17:40:26.014Z,97228.34
2023-05-08T17:42:53.517Z,97226.78
2023-05-08T17:45:21.007Z,97225.75
2023-05-08T17:47:48.581Z,97222.97
2023-05-08T17:50:16.231Z,97223.53
2023-05-08T17:52:43.926Z,97232.16
2023-05-08T17:55:11.764Z,97226.16
2023-05-08T17:57:40.653Z,97230.31
2023-05-08T18:00:09.382Z,97224.94
2023-05-08T18:02:37.144Z,97228.97
2023-05-08T18:05:05.178Z,97221.97
2023-05-08T18:07:33.033Z,97226.31
2023-05-08T18:10:00.560Z,97225.84
2023-05-08T18:12:28.376Z,97230.44
2023-05-08T18:14:59.204Z,97237.16
2023-05-08T18:17:29.287Z,97238.53
2023-05-08T18:19:57.288Z,97233.94
2023-05-08T18:22:24.780Z,97244.25
2023-05-08T18:24:54.114Z,97244.94
2023-05-08T18:27:21.612Z,97247.75
2023-05-08T18:29:49.217Z,97241.00
2023-05-08T18:32:18.108Z,97251.75
2023-05-08T18:34:46.062Z,97253.91
2023-05-08T18:37:13.598Z,97251.28
2023-05-08T18:39:41.129Z,97249.88
2023-05-08T18:42:08.650Z,97247.19
2023-05-08T18:44:36.347Z,97252.09
2023-05-08T18:47:05.123Z,97249.72
2023-05-08T18:49:34.017Z,97247.00
2023-05-08T18:52:01.606Z,97247.22
2023-05-08T18:54:29.081Z,97248.69
2023-05-08T18:56:56.712Z,97249.78
2023-05-08T18:59:24.355Z,97252.66
2023-05-08T19:01:52.014Z,97252.88
2023-05-08T19:04:19.572Z,97244.94
2023-05-08T19:06:48.579Z,97254.59
2023-05-08T19:09:16.201Z,97262.72
2023-05-08T19:11:43.734Z,97264.69
2023-05-08T19:14:11.252Z,97272.84
2023-05-08T19:16:38.751Z,97262.47
2023-05-08T19:19:06.995Z,97266.38
2023-05-08T19:21:34.981Z,97260.47
2023-05-08T19:24:04.195Z,97263.22
2023-05-08T19:26:31.688Z,97262.41
2023-05-08T19:28:59.229Z,97269.78
2023-05-08T19:31:26.763Z,97266.75
2023-05-08T19:33:54.558Z,97266.41
2023-05-08T19:36:22.194Z,97262.84
2023-05-08T19:38:49.987Z,97268.00
2023-05-08T19:41:18.801Z,97268.50
2023-05-08T19:43:46.340Z,97272.50
2023-05-08T19:46:13.913Z,97270.25
2023-05-08T19:48:41.554Z,97266.78
2023-05-08T19:51:11.402Z,97264.81
2023-05-08T19:53:39.694Z,97265.84
2023-05-08T19:56:07.231Z,97268.28
2023-05-08T19:58:36.084Z,97261.16
2023-05-08T20:01:03.725Z,97265.56
2023-05-08T20:03:31.340Z,97254.44
2023-05-08T20:05:58.965Z,97258.28
2023-05-08T20:08:26.493Z,97252.53
2023-05-08T20:10:53.998Z,97249.13
2023-05-08T20:13:21.664Z,97258.59
2023-05-08T20:15:50.661Z,97257.13
2023-05-08T20:18:18.201Z,97249.72
2023-05-08T20:20:46.065Z,97254.06
2023-05-08T20:23:13.592Z,97259.03
2023-05-08T20:25:41.168Z,97251.63
2023-05-08T20:28:08.664Z,97259.34
2023-05-08T20:30:36.247Z,97264.38
2023-05-08T20:33:05.518Z,97255.13
2023-05-08T20:35:33.310Z,97259.63
2023-05-08T20:38:00.887Z,97260.94
2023-05-08T20:40:28.658Z,97262.06
2023-05-08T20:42:56.177Z,97254.38
2023-05-08T20:45:23.748Z,97260.66
2023-05-08T20:47:51.403Z,97256.66
2023-05-08T20:50:20.488Z,97252.69
2023-05-08T20:52:48.034Z,97256.84
2023-05-08T20:55:15.790Z,97252.59
2023-05-08T20:57:43.426Z,97252.63
2023-05-08T21:00:11.700Z,97249.88
2023-05-08T21:02:41.117Z,97247.88
2023-05-08T21:05:09.505Z,97250.94
2023-05-08T21:07:38.887Z,97252.22
2023-05-08T21:10:07.408Z,97245.50
2023-05-08T21:12:34.926Z,97246.56
2023-05-08T21:15:02.457Z,97245.28
2023-05-08T21:17:30.054Z,97240.03
2023-05-08T21:19:57.934Z,97239.78
2023-05-08T21:22:25.541Z,97243.53
2023-05-08T21:24:54.399Z,97242.63
2023-05-08T21:27:21.919Z,97236.88
2023-05-08T21:29:49.430Z,97235.44
2023-05-08T21:32:16.914Z,97240.69
2023-05-08T21:34:44.460Z,97237.66
2023-05-08T21:37:11.961Z,97238.59
2023-05-08T21:39:39.598Z,97237.56
2023-05-08T21:42:08.484Z,97239.25
2023-05-08T21:44:36.031Z,97244.59
2023-05-08T21:47:03.530Z,97240.53
2023-05-08T21:49:31.039Z,97233.81
2023-05-08T21:51:58.760Z,97232.75
2023-05-08T21:54:26.287Z,97232.22
2023-05-08T21:56:53.788Z,97244.50
2023-05-08T21:59:22.829Z,97236.44
2023-05-08T22:01:50.434Z,97233.44
2023-05-08T22:04:17.975Z,97236.59
2023-05-08T22:06:45.500Z,97231.06
2023-05-08T22:09:13.011Z,97228.38
2023-05-08T22:11:40.615Z,97227.47
2023-05-08T22:14:08.221Z,97228.59
2023-05-08T22:16:37.441Z,97228.59
2023-05-08T22:19:05.136Z,97225.75
2023-05-08T22:21:32.924Z,97221.06
2023-05-08T22:24:00.455Z,97217.94
2023-05-08T22:26:28.976Z,97212.81
2023-05-08T22:28:56.579Z,97217.06
2023-05-08T22:31:24.162Z,97220.97
2023-05-08T22:33:53.165Z,97207.97
2023-05-08T22:36:23.690Z,97206.69
2023-05-08T22:38:51.455Z,97206.69
2023-05-08T22:41:19.080Z,97201.47
2023-05-08T22:43:46.662Z,97195.34
2023-05-08T22:46:14.314Z,97196.56
2023-05-08T22:48:41.949Z,97194.25
2023-05-08T22:51:11.090Z,97187.69
2023-05-08T22:53:38.618Z,97189.78
2023-05-08T22:56:06.544Z,97184.44
2023-05-08T22:58:34.121Z,97178.44
2023-05-08T23:01:01.649Z,97179.47
2023-05-08T23:03:29.188Z,97174.34
2023-05-08T23:05:56.709Z,97167.16
2023-05-08T23:08:25.520Z,97170.75
2023-05-08T23:10:52.994Z,97165.88
2023-05-08T23:13:20.566Z,97160.06
2023-05-08T23:15:48.098Z,97163.69
2023-05-08T23:18:15.619Z,97153.63
2023-05-08T23:20:43.196Z,97154.06
2023-05-08T23:23:10.695Z,97155.91
2023-05-08T23:25:39.533Z,97148.09
2023-05-08T23:28:07.067Z,97149.09
2023-05-08T23:30:34.631Z,97146.59
2023-05-08T23:33:02.144Z,97139.69
2023-05-08T23:35:29.685Z,97144.06
2023-05-08T23:37:57.216Z,97137.63
2023-05-08T23:40:24.843Z,97140.91
2023-05-08T23:42:53.696Z,97145.31
2023-05-08T23:45:21.466Z,97144.66
2023-05-08T23:47:49.237Z,97138.44
2023-05-08T23:50:17.549Z,97140.78
2023-05-08T23:52:45.453Z,97143.94
2023-05-08T23:55:13.241Z,97137.19
2023-05-08T23:57:41.064Z,97137.47
